Time;durP1;ratioP1;P1;durP2;ratioP2;P2;SDS_P1;SDS_P2;PMS_P1;PMS_P2;Temp;Humidity;BMP_temperature;BMP_pressure;BME280_temperature;BME280_humidity;BME280_pressure;Samples;Min_cycle;Max_cycle;Signal;HPM_P1;HPM_P2
2021/08/30 00:00:40;;;;;;;28.03;24.50;;;15.70;99.90;;;;;;4987078;28;20496;-68
2021/08/30 00:03:08;;;;;;;26.77;24.17;;;15.70;99.90;;;;;;4988559;28;21495;-68
2021/08/30 00:05:38;;;;;;;26.30;23.70;;;15.70;99.90;;;;;;4986197;28;20898;-68
2021/08/30 00:08:05;;;;;;;27.13;24.50;;;15.70;99.90;;;;;;4986399;28;20497;-68
2021/08/30 00:10:32;;;;;;;26.80;23.90;;;15.70;99.90;;;;;;4986692;28;20528;-68
2021/08/30 00:12:59;;;;;;;28.50;25.70;;;15.70;99.90;;;;;;4987292;28;20496;-69
2021/08/30 00:15:26;;;;;;;26.10;23.37;;;15.70;99.90;;;;;;4988044;28;20518;-68
2021/08/30 00:17:53;;;;;;;29.13;26.23;;;15.70;99.90;;;;;;4986128;28;20543;-68
2021/08/30 00:20:22;;;;;;;29.73;26.70;;;15.70;99.90;;;;;;4986719;28;20555;-69
2021/08/30 00:22:49;;;;;;;29.67;26.83;;;15.60;99.90;;;;;;4988075;28;20494;-68
2021/08/30 00:25:16;;;;;;;28.80;25.90;;;15.70;99.90;;;;;;4986689;28;20461;-69
2021/08/30 00:27:43;;;;;;;27.27;24.67;;;15.70;99.90;;;;;;4984894;28;20551;-69
2021/08/30 00:30:12;;;;;;;28.10;25.47;;;15.60;99.90;;;;;;4987670;28;20579;-69
2021/08/30 00:32:40;;;;;;;30.80;27.87;;;15.60;99.90;;;;;;4987096;28;20465;-69
2021/08/30 00:35:08;;;;;;;32.97;29.57;;;15.60;99.90;;;;;;4985939;28;20503;-69
2021/08/30 00:37:36;;;;;;;29.37;26.57;;;15.70;99.90;;;;;;4986997;28;20551;-69
2021/08/30 00:40:08;;;;;;;30.67;27.37;;;15.70;99.90;;;;;;4987772;28;20941;-69
2021/08/30 00:42:35;;;;;;;29.53;26.53;;;15.60;99.90;;;;;;4986580;28;20497;-69
2021/08/30 00:45:05;;;;;;;28.47;25.67;;;15.60;99.90;;;;;;4985823;28;20858;-69
2021/08/30 00:47:32;;;;;;;29.10;26.20;;;15.60;99.90;;;;;;4985619;28;20552;-69
2021/08/30 00:49:59;;;;;;;28.80;25.73;;;15.60;99.90;;;;;;4986902;28;20552;-69
2021/08/30 00:52:27;;;;;;;30.20;27.20;;;15.60;99.90;;;;;;4988070;28;20541;-69
2021/08/30 00:54:55;;;;;;;30.40;27.10;;;15.60;99.90;;;;;;4986161;28;20438;-69
2021/08/30 00:57:22;;;;;;;30.87;27.30;;;15.60;99.90;;;;;;4986414;28;20963;-69
2021/08/30 00:59:49;;;;;;;31.07;27.87;;;15.70;99.90;;;;;;4987475;28;20547;-69
2021/08/30 01:02:16;;;;;;;31.60;28.43;;;15.70;99.90;;;;;;4986344;28;20513;-70
2021/08/30 01:04:44;;;;;;;31.00;27.90;;;15.60;99.90;;;;;;4986079;28;20457;-70
2021/08/30 01:07:19;;;;;;;30.70;27.23;;;15.60;99.90;;;;;;4987786;28;20461;-69
2021/08/30 01:09:53;;;;;;;31.87;28.57;;;15.60;99.90;;;;;;4987203;28;20460;-69
2021/08/30 01:12:27;;;;;;;29.83;26.80;;;15.60;99.90;;;;;;4986734;28;20786;-69
2021/08/30 01:14:58;;;;;;;30.00;25.67;;;15.70;99.90;;;;;;4985479;28;20912;-69
2021/08/30 01:17:27;;;;;;;28.00;25.00;;;15.70;99.90;;;;;;4987965;28;20929;-69
2021/08/30 01:20:02;;;;;;;27.87;24.87;;;15.60;99.90;;;;;;4989334;28;20464;-70
2021/08/30 01:22:31;;;;;;;28.30;25.30;;;15.60;99.90;;;;;;4989589;28;20536;-70
2021/08/30 01:25:02;;;;;;;29.63;25.90;;;15.60;99.90;;;;;;4986715;28;20549;-70
2021/08/30 01:27:32;;;;;;;28.30;25.20;;;15.50;99.90;;;;;;4981469;28;20738;-70
2021/08/30 01:30:03;;;;;;;32.33;26.87;;;15.60;99.90;;;;;;4980943;28;20461;-70
2021/08/30 01:32:34;;;;;;;28.87;25.97;;;15.50;99.90;;;;;;4981471;28;20555;-70
2021/08/30 01:35:03;;;;;;;27.13;24.43;;;15.50;99.90;;;;;;4981348;28;20508;-70
2021/08/30 01:37:33;;;;;;;32.00;28.90;;;15.50;99.90;;;;;;4980950;28;20508;-70
2021/08/30 01:40:01;;;;;;;29.47;26.43;;;15.50;99.90;;;;;;4981114;28;20548;-70
2021/08/30 01:42:29;;;;;;;30.37;27.10;;;15.50;99.90;;;;;;4981294;28;20473;-70
2021/08/30 01:44:58;;;;;;;29.73;26.77;;;15.50;99.90;;;;;;4981371;28;20536;-70
2021/08/30 01:47:26;;;;;;;30.60;27.60;;;15.50;99.90;;;;;;4981309;28;20597;-70
2021/08/30 01:50:02;;;;;;;30.70;27.20;;;15.50;99.90;;;;;;4980879;28;20556;-70
2021/08/30 01:52:30;;;;;;;31.33;25.70;;;15.50;99.90;;;;;;4980941;28;20498;-70
2021/08/30 01:55:00;;;;;;;29.10;25.87;;;15.50;99.90;;;;;;4981085;28;20540;-70
2021/08/30 01:57:27;;;;;;;31.30;26.00;;;15.50;99.90;;;;;;4980871;28;20497;-70
2021/08/30 02:02:39;;;;;;;28.67;25.87;;;15.40;99.90;;;;;;4980729;28;20432;-70
2021/08/30 02:05:08;;;;;;;30.10;25.40;;;15.40;99.90;;;;;;4980853;28;20465;-70
2021/08/30 02:07:38;;;;;;;30.90;27.77;;;15.40;99.90;;;;;;4980676;28;20466;-70
2021/08/30 02:10:06;;;;;;;31.40;28.03;;;15.40;99.90;;;;;;4980869;28;20506;-70
2021/08/30 02:12:33;;;;;;;29.27;26.37;;;15.40;99.90;;;;;;4980865;28;20568;-70
2021/08/30 02:15:00;;;;;;;29.93;26.60;;;15.40;99.90;;;;;;4980749;28;20505;-70
2021/08/30 02:17:31;;;;;;;27.27;24.43;;;15.40;99.90;;;;;;4980201;28;20508;-70
2021/08/30 02:20:07;;;;;;;30.30;24.67;;;15.30;99.90;;;;;;4980651;28;20930;-70
2021/08/30 02:22:40;;;;;;;28.77;25.97;;;15.30;99.90;;;;;;4980556;28;20802;-70
2021/08/30 02:25:12;;;;;;;28.90;26.10;;;15.30;99.90;;;;;;4994983;28;20549;-70
2021/08/30 02:27:45;;;;;;;30.00;26.80;;;15.40;99.90;;;;;;4986916;28;20835;-70
2021/08/30 02:30:17;;;;;;;28.70;25.80;;;15.30;99.90;;;;;;4980509;28;20473;-70
2021/08/30 02:32:46;;;;;;;28.37;25.63;;;15.30;99.90;;;;;;4980349;28;20852;-70
2021/08/30 02:35:17;;;;;;;29.00;25.97;;;15.30;99.90;;;;;;4979949;28;20574;-70
2021/08/30 02:37:46;;;;;;;29.50;26.40;;;15.30;99.90;;;;;;4980150;28;20848;-70
2021/08/30 02:40:14;;;;;;;29.53;26.40;;;15.20;99.90;;;;;;4980442;28;20801;-70
2021/08/30 02:42:43;;;;;;;30.30;25.47;;;15.20;99.90;;;;;;4980284;28;20825;-70
2021/08/30 02:45:13;;;;;;;29.20;26.00;;;15.20;99.90;;;;;;4979940;28;20548;-70
2021/08/30 02:47:41;;;;;;;30.73;26.60;;;15.20;99.90;;;;;;4980209;28;20516;-70
2021/08/30 02:50:11;;;;;;;29.60;26.70;;;15.20;99.90;;;;;;4979780;28;20479;-70
2021/08/30 02:52:39;;;;;;;30.10;26.63;;;15.20;99.90;;;;;;4980053;28;20489;-70
2021/08/30 02:55:09;;;;;;;31.27;28.03;;;15.20;99.90;;;;;;4980227;28;20823;-70
2021/08/30 02:57:37;;;;;;;30.60;26.47;;;15.20;99.90;;;;;;4979498;28;20480;-70
2021/08/30 03:00:09;;;;;;;30.57;27.30;;;15.10;99.90;;;;;;4979808;28;20561;-70
2021/08/30 03:02:38;;;;;;;28.77;25.77;;;15.20;99.90;;;;;;4979573;28;20493;-70
2021/08/30 03:05:06;;;;;;;29.97;26.70;;;15.10;99.90;;;;;;4979812;28;20604;-70
2021/08/30 03:07:34;;;;;;;30.00;26.83;;;15.10;99.90;;;;;;4979280;28;20462;-70
2021/08/30 03:10:01;;;;;;;31.87;26.73;;;15.10;99.90;;;;;;4979758;28;20850;-70
2021/08/30 03:12:37;;;;;;;29.27;26.07;;;15.20;99.90;;;;;;4979648;28;20539;-70
2021/08/30 03:15:07;;;;;;;28.70;25.70;;;15.20;99.90;;;;;;4979965;28;20471;-70
2021/08/30 03:17:36;;;;;;;32.03;28.00;;;15.10;99.90;;;;;;4979155;28;20537;-70
2021/08/30 03:20:06;;;;;;;29.07;26.13;;;15.10;99.90;;;;;;4979476;28;20826;-70
2021/08/30 03:22:33;;;;;;;29.20;25.97;;;15.10;99.90;;;;;;4979584;28;20458;-71
2021/08/30 03:25:04;;;;;;;29.23;26.17;;;15.10;99.90;;;;;;4992949;28;20472;-70
2021/08/30 03:27:32;;;;;;;30.30;27.10;;;15.10;99.90;;;;;;4987229;28;20466;-70
2021/08/30 03:30:00;;;;;;;28.77;25.80;;;15.10;99.90;;;;;;4979386;28;20520;-70
2021/08/30 03:32:27;;;;;;;28.27;25.47;;;15.00;99.90;;;;;;4978576;28;20576;-70
2021/08/30 03:34:54;;;;;;;31.47;25.70;;;15.10;99.90;;;;;;4978369;28;20528;-70
2021/08/30 03:37:22;;;;;;;33.67;26.17;;;15.00;99.90;;;;;;4977867;28;20563;-70
2021/08/30 03:39:49;;;;;;;30.27;27.23;;;15.00;99.90;;;;;;4977389;28;20568;-70
2021/08/30 03:42:16;;;;;;;34.60;27.40;;;15.00;99.90;;;;;;4979056;28;20498;-70
2021/08/30 03:44:44;;;;;;;29.90;26.80;;;15.10;99.90;;;;;;4978774;28;20525;-70
2021/08/30 03:47:14;;;;;;;29.40;26.20;;;15.10;99.90;;;;;;4979168;28;20481;-70
2021/08/30 03:49:45;;;;;;;27.53;24.70;;;15.00;99.90;;;;;;4979030;28;20469;-70
2021/08/30 03:52:13;;;;;;;30.90;27.50;;;15.00;99.90;;;;;;4978821;28;20525;-70
2021/08/30 03:54:40;;;;;;;28.10;25.10;;;15.00;99.90;;;;;;4979036;28;20489;-70
2021/08/30 03:57:13;;;;;;;28.10;23.97;;;15.00;99.90;;;;;;4978968;28;20524;-70
2021/08/30 03:59:44;;;;;;;28.03;25.23;;;15.00;99.90;;;;;;4978964;28;20528;-70
2021/08/30 04:02:14;;;;;;;28.50;25.40;;;15.00;99.90;;;;;;4978648;28;20475;-70
2021/08/30 04:04:43;;;;;;;27.20;24.30;;;15.00;99.90;;;;;;4985397;28;20557;-70
2021/08/30 04:07:10;;;;;;;27.50;24.70;;;14.90;99.90;;;;;;4996269;28;20530;-70
2021/08/30 04:09:42;;;;;;;27.73;25.03;;;14.90;99.90;;;;;;4996216;28;20465;-70
2021/08/30 04:12:09;;;;;;;27.27;24.37;;;14.90;99.90;;;;;;4997146;28;20980;-70
2021/08/30 04:14:36;;;;;;;28.30;25.40;;;15.00;99.90;;;;;;4997903;28;20496;-70
2021/08/30 04:17:03;;;;;;;27.67;24.77;;;14.90;99.90;;;;;;4997876;28;20461;-70
2021/08/30 04:19:32;;;;;;;27.47;24.63;;;15.00;99.90;;;;;;4997386;28;20497;-70
2021/08/30 04:21:59;;;;;;;27.87;23.97;;;15.00;99.90;;;;;;4996475;28;20467;-70
2021/08/30 04:24:29;;;;;;;27.23;23.73;;;15.00;99.90;;;;;;4995721;28;20489;-70
2021/08/30 04:26:56;;;;;;;29.50;26.40;;;15.00;99.90;;;;;;4990803;28;20523;-70
2021/08/30 04:29:23;;;;;;;27.93;24.93;;;15.00;99.90;;;;;;4986768;28;20900;-70
2021/08/30 04:31:50;;;;;;;28.87;25.03;;;15.00;99.90;;;;;;4997652;28;20536;-69
2021/08/30 04:34:22;;;;;;;27.60;24.50;;;15.00;99.90;;;;;;4997793;28;20469;-69
2021/08/30 04:36:50;;;;;;;27.63;24.90;;;15.00;99.90;;;;;;4997642;28;20593;-69
2021/08/30 04:39:17;;;;;;;28.60;25.60;;;15.00;99.90;;;;;;4997445;28;20501;-69
2021/08/30 04:41:45;;;;;;;27.50;24.60;;;15.00;99.90;;;;;;4996319;28;20505;-69
2021/08/30 04:44:12;;;;;;;29.10;25.80;;;15.00;99.90;;;;;;4996378;28;20516;-69
2021/08/30 04:46:39;;;;;;;28.60;25.13;;;15.00;99.90;;;;;;4997312;28;20525;-69
2021/08/30 04:49:08;;;;;;;29.20;25.53;;;15.00;99.90;;;;;;4997899;28;20465;-69
2021/08/30 04:51:35;;;;;;;30.70;26.67;;;15.00;99.90;;;;;;4998740;28;20559;-69
2021/08/30 04:54:07;;;;;;;29.17;26.17;;;15.10;99.90;;;;;;5001667;28;20469;-69
2021/08/30 04:56:34;;;;;;;30.73;25.60;;;15.10;99.90;;;;;;5001164;28;20464;-69
2021/08/30 04:59:01;;;;;;;28.80;25.83;;;15.10;99.90;;;;;;5001813;28;20500;-69
2021/08/30 05:01:28;;;;;;;31.43;27.93;;;15.00;99.90;;;;;;5000869;28;20464;-69
2021/08/30 05:03:55;;;;;;;30.67;27.40;;;15.00;99.90;;;;;;5001467;28;20523;-68
2021/08/30 05:06:22;;;;;;;33.50;29.50;;;15.00;99.90;;;;;;5000951;28;20529;-68
2021/08/30 05:08:49;;;;;;;31.07;27.97;;;15.00;99.90;;;;;;5000904;28;20464;-68
2021/08/30 05:11:17;;;;;;;31.40;28.00;;;15.00;99.90;;;;;;4995108;28;20582;-68
2021/08/30 05:13:46;;;;;;;32.50;28.03;;;15.00;99.90;;;;;;4993558;28;20496;-69
2021/08/30 05:16:14;;;;;;;31.60;28.37;;;15.10;99.90;;;;;;4988550;28;20535;-69
2021/08/30 05:18:43;;;;;;;31.50;28.20;;;15.10;99.90;;;;;;4998827;28;20469;-69
2021/08/30 05:21:11;;;;;;;31.77;28.80;;;15.10;99.90;;;;;;5000527;28;20765;-69
2021/08/30 05:23:41;;;;;;;32.50;29.17;;;15.00;99.90;;;;;;4997975;28;20528;-69
2021/08/30 05:26:08;;;;;;;33.60;28.23;;;15.10;99.90;;;;;;4990813;28;20493;-68
2021/08/30 05:28:37;;;;;;;34.73;31.23;;;15.00;99.90;;;;;;4991827;28;20468;-68
2021/08/30 05:31:10;;;;;;;32.30;29.17;;;15.00;99.90;;;;;;4995558;28;20563;-68
2021/08/30 05:33:38;;;;;;;35.30;31.57;;;15.10;99.90;;;;;;4992535;28;20496;-68
2021/08/30 05:36:08;;;;;;;34.40;30.70;;;15.10;99.90;;;;;;4998230;28;20472;-69
2021/08/30 05:38:35;;;;;;;34.73;31.07;;;15.00;99.90;;;;;;4999785;28;20503;-69
2021/08/30 05:41:05;;;;;;;35.03;30.87;;;15.00;99.90;;;;;;5000793;28;20861;-69
2021/08/30 05:43:32;;;;;;;35.57;31.97;;;15.10;99.90;;;;;;5000066;28;20543;-69
2021/08/30 05:46:00;;;;;;;36.90;33.10;;;15.00;99.90;;;;;;4998223;28;20520;-69
2021/08/30 05:48:29;;;;;;;38.53;32.60;;;15.10;99.90;;;;;;4997643;28;20496;-69
2021/08/30 05:50:56;;;;;;;37.50;33.63;;;15.00;99.90;;;;;;4997605;28;20592;-69
2021/08/30 05:53:23;;;;;;;38.20;34.03;;;15.00;99.90;;;;;;4998399;28;20497;-69
2021/08/30 05:55:53;;;;;;;35.73;32.13;;;15.00;99.90;;;;;;4987113;28;20512;-69
2021/08/30 05:58:21;;;;;;;42.43;31.40;;;15.00;99.90;;;;;;4993340;28;20523;-69
2021/08/30 06:00:51;;;;;;;37.73;33.70;;;15.10;99.90;;;;;;4999383;28;20500;-69
2021/08/30 06:03:19;;;;;;;35.50;31.77;;;15.10;99.90;;;;;;4997659;28;20520;-70
2021/08/30 06:39:27;;;;;;;44.17;37.07;;;15.10;99.90;;;;;;4670508;23;20488;-69
2021/08/30 06:41:54;;;;;;;40.47;36.20;;;15.10;99.90;;;;;;4999564;28;20464;-69
2021/08/30 06:44:21;;;;;;;38.80;34.47;;;15.10;99.90;;;;;;4999266;28;20816;-69
2021/08/30 06:46:48;;;;;;;42.30;35.90;;;15.10;99.90;;;;;;4999406;28;20527;-69
2021/08/30 06:49:16;;;;;;;39.07;34.77;;;15.20;99.90;;;;;;4999568;28;20493;-69
2021/08/30 06:51:43;;;;;;;40.73;36.33;;;15.20;99.90;;;;;;4999131;28;20505;-69
2021/08/30 06:54:10;;;;;;;38.97;34.80;;;15.20;99.90;;;;;;4998870;28;20457;-69
2021/08/30 06:56:39;;;;;;;39.17;34.90;;;15.20;99.90;;;;;;4999057;28;20496;-69
2021/08/30 06:59:06;;;;;;;40.67;36.47;;;15.20;99.90;;;;;;4998834;28;20493;-69
2021/08/30 07:01:33;;;;;;;42.33;35.17;;;15.30;99.90;;;;;;4998918;28;20877;-69
2021/08/30 07:04:01;;;;;;;40.57;34.97;;;15.30;99.90;;;;;;4999033;28;20453;-69
2021/08/30 07:06:28;;;;;;;41.93;36.70;;;15.30;99.90;;;;;;4998978;28;20468;-68
2021/08/30 07:09:02;;;;;;;44.87;37.07;;;15.30;99.90;;;;;;4998760;28;20901;-69
2021/08/30 07:11:31;;;;;;;38.97;34.73;;;15.30;99.90;;;;;;4998307;28;20450;-68
2021/08/30 07:14:01;;;;;;;38.33;34.50;;;15.30;99.90;;;;;;4998496;28;20504;-68
2021/08/30 07:16:28;;;;;;;34.70;30.83;;;15.40;99.90;;;;;;4998502;28;20877;-69
2021/08/30 07:18:55;;;;;;;35.87;32.17;;;15.40;99.90;;;;;;4998604;28;20504;-68
2021/08/30 07:21:25;;;;;;;36.57;32.70;;;15.40;99.90;;;;;;4998522;28;20464;-68
2021/08/30 07:23:52;;;;;;;36.17;32.43;;;15.50;99.90;;;;;;4992971;28;20454;-68
2021/08/30 07:26:19;;;;;;;39.67;35.37;;;15.60;99.90;;;;;;4988959;28;20523;-68
2021/08/30 07:28:49;;;;;;;33.63;30.17;;;15.60;99.90;;;;;;4990295;28;20524;-68
2021/08/30 07:31:22;;;;;;;34.47;30.97;;;15.70;99.90;;;;;;4998404;28;20473;-67
2021/08/30 07:33:49;;;;;;;33.00;29.60;;;15.80;99.90;;;;;;4998533;28;20551;-68
2021/08/30 07:36:17;;;;;;;31.87;28.57;;;15.90;99.90;;;;;;4996033;28;20540;-67
2021/08/30 07:38:46;;;;;;;31.40;28.10;;;15.90;99.90;;;;;;4997654;28;20517;-67
2021/08/30 07:41:14;;;;;;;29.63;26.60;;;16.00;99.90;;;;;;4998117;28;20566;-67
2021/08/30 07:43:40;;;;;;;31.80;28.50;;;16.00;99.90;;;;;;4995447;28;20754;-67
2021/08/30 07:46:07;;;;;;;35.93;30.13;;;15.90;99.90;;;;;;4997847;28;20825;-67
2021/08/30 07:48:36;;;;;;;31.90;28.60;;;15.90;99.90;;;;;;4998105;28;20501;-67
2021/08/30 07:51:03;;;;;;;32.37;28.93;;;15.80;99.90;;;;;;4997869;28;20465;-67
2021/08/30 07:53:32;;;;;;;33.47;28.60;;;15.90;99.90;;;;;;4998160;28;20499;-67
2021/08/30 07:55:59;;;;;;;32.87;29.40;;;15.90;99.90;;;;;;4998464;28;20496;-67
2021/08/30 08:32:54;;;;;;;27.80;25.00;;;17.40;99.90;;;;;;2704845;23;20488;-65
2021/08/30 08:35:21;;;;;;;26.87;24.27;;;17.60;99.90;;;;;;5003660;28;20499;-65
2021/08/30 08:37:48;;;;;;;24.67;22.27;;;17.70;99.90;;;;;;5004131;28;20469;-65
2021/08/30 08:40:16;;;;;;;22.87;20.53;;;17.60;99.90;;;;;;5004348;28;20465;-65
2021/08/30 08:42:44;;;;;;;24.80;22.17;;;17.40;99.90;;;;;;5004375;28;20499;-65
2021/08/30 08:45:16;;;;;;;23.83;21.30;;;17.30;99.90;;;;;;5003726;28;20530;-64
2021/08/30 08:47:44;;;;;;;23.40;21.10;;;17.10;99.90;;;;;;5003664;28;20495;-64
2021/08/30 08:50:15;;;;;;;23.93;21.30;;;17.10;99.90;;;;;;5004101;28;20546;-64
2021/08/30 08:52:43;;;;;;;24.63;22.23;;;17.20;99.90;;;;;;5004350;28;20584;-64
2021/08/30 08:55:10;;;;;;;24.43;21.83;;;17.10;99.90;;;;;;4998251;28;20504;-64
2021/08/30 08:57:37;;;;;;;22.97;20.77;;;17.20;99.90;;;;;;5004018;28;20464;-64
2021/08/30 09:00:10;;;;;;;24.43;21.93;;;17.20;99.90;;;;;;5003715;28;20461;-64
2021/08/30 09:02:39;;;;;;;22.80;20.47;;;17.40;99.90;;;;;;5004059;28;20859;-64
2021/08/30 09:05:21;;;;;;;24.27;21.67;;;17.50;99.90;;;;;;5004172;28;20484;-64
2021/08/30 09:07:49;;;;;;;23.13;19.97;;;17.80;99.90;;;;;;5003643;28;20551;-64
2021/08/30 09:10:18;;;;;;;23.53;21.23;;;17.90;99.90;;;;;;5004186;28;20431;-64
2021/08/30 09:12:47;;;;;;;21.57;19.53;;;17.80;99.90;;;;;;5003964;28;20489;-64
2021/08/30 09:15:21;;;;;;;22.70;20.30;;;17.80;99.90;;;;;;5003602;28;20789;-64
2021/08/30 09:17:57;;;;;;;23.30;21.20;;;17.90;99.90;;;;;;5003730;28;20924;-64
2021/08/30 09:20:25;;;;;;;24.90;22.30;;;17.90;99.90;;;;;;4996449;28;20789;-64
2021/08/30 09:22:54;;;;;;;22.03;20.13;;;18.00;99.90;;;;;;4984444;28;20489;-64
2021/08/30 09:25:24;;;;;;;23.37;20.90;;;18.00;99.90;;;;;;4990955;28;20501;-64
2021/08/30 09:27:52;;;;;;;21.93;19.80;;;18.00;99.90;;;;;;4997921;28;20483;-64
2021/08/30 09:30:29;;;;;;;22.67;20.30;;;18.20;99.90;;;;;;5003612;28;20468;-64
2021/08/30 09:32:57;;;;;;;22.73;20.53;;;18.30;99.90;;;;;;5003335;28;20527;-64
2021/08/30 09:35:25;;;;;;;22.03;19.83;;;18.40;99.90;;;;;;5001797;28;20527;-64
2021/08/30 09:40:38;;;;;;;21.33;19.00;;;19.40;99.90;;;;;;4994351;28;20465;-64
2021/08/30 09:43:06;;;;;;;20.97;18.70;;;19.90;99.90;;;;;;5000179;28;20454;-63
2021/08/30 09:45:35;;;;;;;20.40;18.53;;;20.30;99.90;;;;;;4997331;28;20469;-63
2021/08/30 09:48:10;;;;;;;20.03;17.87;;;19.90;99.90;;;;;;5000531;28;20469;-63
2021/08/30 09:50:43;;;;;;;19.00;17.40;;;20.20;99.90;;;;;;4999047;28;20464;-63
2021/08/30 09:53:12;;;;;;;20.10;18.10;;;20.10;99.90;;;;;;5000570;28;20941;-63
2021/08/30 09:55:41;;;;;;;20.10;18.20;;;20.20;99.90;;;;;;5000221;28;20825;-63
2021/08/30 09:58:09;;;;;;;18.13;16.50;;;20.00;99.90;;;;;;5000046;28;20548;-63
2021/08/30 10:00:36;;;;;;;17.43;15.83;;;19.30;99.90;;;;;;4999985;28;20477;-63
2021/08/30 10:03:07;;;;;;;20.30;18.30;;;18.90;99.90;;;;;;5000252;28;20468;-63
2021/08/30 10:05:37;;;;;;;20.77;18.63;;;18.70;99.90;;;;;;4999974;28;20465;-63
2021/08/30 10:08:05;;;;;;;20.40;18.33;;;18.20;99.90;;;;;;5000065;28;20468;-63
2021/08/30 10:10:36;;;;;;;20.37;18.57;;;17.90;99.90;;;;;;4999889;28;20468;-63
2021/08/30 10:13:03;;;;;;;21.90;18.87;;;17.90;99.90;;;;;;5000178;28;20619;-64
2021/08/30 10:15:35;;;;;;;22.43;20.23;;;17.80;99.90;;;;;;5000065;28;20956;-63
2021/08/30 10:18:06;;;;;;;21.70;19.50;;;17.80;99.90;;;;;;4999830;28;20810;-64
2021/08/30 10:20:35;;;;;;;19.97;18.07;;;18.00;99.90;;;;;;4999828;28;20567;-63
2021/08/30 10:23:04;;;;;;;19.33;17.17;;;18.50;99.90;;;;;;5000059;28;20469;-63
2021/08/30 10:25:38;;;;;;;19.03;17.20;;;19.00;99.90;;;;;;4998504;28;20566;-63
2021/08/30 10:28:10;;;;;;;19.50;17.90;;;19.90;99.90;;;;;;4983540;28;20932;-63
2021/08/30 11:03:24;;;;;;;16.80;15.30;;;20.10;99.90;;;;;;3044149;23;20932;31
2021/08/30 11:06:02;;;;;;;16.93;15.33;;;21.20;99.90;;;;;;4944553;29;20458;-61
2021/08/30 11:08:29;;;;;;;17.00;15.50;;;20.90;99.90;;;;;;4947761;29;20456;-60
2021/08/30 11:11:13;;;;;;;16.07;14.60;;;20.70;99.90;;;;;;4944598;29;20459;-59
2021/08/30 11:13:41;;;;;;;14.83;13.53;;;20.70;99.90;;;;;;4942575;29;20470;-59
2021/08/30 11:16:24;;;;;;;15.37;14.07;;;20.50;99.90;;;;;;4940907;29;20463;-59
2021/08/30 11:18:55;;;;;;;15.20;13.90;;;20.80;99.90;;;;;;4952414;29;20522;-60
2021/08/30 11:21:46;;;;;;;15.90;13.70;;;21.00;99.90;;;;;;4956256;29;20494;-60
2021/08/30 11:24:25;;;;;;;15.13;13.83;;;21.20;99.90;;;;;;4949934;29;20468;-60
2021/08/30 11:26:53;;;;;;;15.70;14.30;;;20.90;99.90;;;;;;4952869;29;20460;-58
2021/08/30 11:29:20;;;;;;;16.90;14.70;;;20.50;99.90;;;;;;4953064;29;20522;-60
2021/08/30 11:31:47;;;;;;;14.97;13.67;;;19.80;99.90;;;;;;4959802;29;20463;-59
2021/08/30 11:34:32;;;;;;;16.43;14.73;;;19.60;99.90;;;;;;4958325;29;20596;-58
2021/08/30 11:37:02;;;;;;;14.90;13.60;;;19.80;99.90;;;;;;4959749;29;20506;-59
2021/08/30 11:39:36;;;;;;;15.37;13.90;;;19.80;99.90;;;;;;4959349;29;20494;-60
2021/08/30 11:42:06;;;;;;;17.13;15.47;;;19.70;99.90;;;;;;4959793;29;20894;-60
2021/08/30 11:44:38;;;;;;;15.57;14.17;;;20.20;99.90;;;;;;4959243;29;20463;-61
2021/08/30 11:47:06;;;;;;;15.17;13.77;;;20.70;99.90;;;;;;4959729;29;20520;-60
2021/08/30 11:49:38;;;;;;;15.93;14.43;;;21.10;99.90;;;;;;4959490;29;20489;-61
2021/08/30 11:52:13;;;;;;;14.10;12.80;;;21.10;99.90;;;;;;4959893;29;20935;-56
2021/08/30 11:54:46;;;;;;;14.57;13.07;;;21.10;99.90;;;;;;4958590;29;20529;-59
2021/08/30 11:57:17;;;;;;;13.83;12.40;;;21.20;99.90;;;;;;4959123;29;20473;-59
2021/08/30 11:59:49;;;;;;;13.67;12.47;;;21.00;99.90;;;;;;4959709;29;20518;-59
2021/08/30 12:02:17;;;;;;;14.90;13.60;;;20.30;99.90;;;;;;4958362;28;20503;-58
2021/08/30 12:04:44;;;;;;;13.27;11.97;;;20.00;99.90;;;;;;4958763;29;20529;-58
2021/08/30 12:07:16;;;;;;;13.00;11.90;;;19.90;99.90;;;;;;4956662;29;20765;-57
2021/08/30 12:09:48;;;;;;;20.53;13.30;;;20.00;99.90;;;;;;4952191;29;20540;-59
2021/08/30 12:12:19;;;;;;;14.77;13.47;;;20.30;99.90;;;;;;4953376;29;20471;-59
2021/08/30 12:15:01;;;;;;;13.60;12.20;;;20.80;99.90;;;;;;4951030;29;20541;-60
2021/08/30 12:17:29;;;;;;;15.93;12.50;;;21.40;99.90;;;;;;4959018;29;20493;-60
2021/08/30 12:20:01;;;;;;;14.23;12.83;;;21.20;99.90;;;;;;4953569;29;20541;-60
2021/08/30 12:22:35;;;;;;;13.80;12.50;;;21.30;99.90;;;;;;4945181;29;20869;-60
2021/08/30 12:25:10;;;;;;;13.00;11.83;;;21.30;99.90;;;;;;4954368;29;20490;-60
2021/08/30 12:27:39;;;;;;;12.33;11.13;;;21.30;99.90;;;;;;4946048;29;20507;-59
2021/08/30 12:30:22;;;;;;;11.83;10.70;;;20.50;99.90;;;;;;4939159;29;20531;-58
2021/08/30 12:33:09;;;;;;;12.20;11.20;;;20.20;99.90;;;;;;4939456;29;20471;-60
2021/08/30 12:35:39;;;;;;;12.53;11.43;;;20.10;99.90;;;;;;4943064;29;20509;-62
2021/08/30 12:38:11;;;;;;;13.90;12.50;;;20.00;99.90;;;;;;4939944;29;20463;-62
2021/08/30 12:40:42;;;;;;;12.10;11.00;;;19.90;99.90;;;;;;4943154;29;20499;-62
2021/08/30 12:43:09;;;;;;;13.40;12.20;;;19.90;99.90;;;;;;4947006;29;20510;-60
2021/08/30 12:45:37;;;;;;;12.17;11.10;;;20.10;99.90;;;;;;4946559;29;20910;-61
2021/08/30 12:48:06;;;;;;;13.20;11.77;;;20.30;99.90;;;;;;4943632;29;20467;-61
2021/08/30 12:50:34;;;;;;;12.77;11.60;;;20.50;99.90;;;;;;4958536;29;20888;-61
2021/08/30 12:53:01;;;;;;;13.90;12.80;;;20.70;99.90;;;;;;4953749;29;20478;-62
2021/08/30 12:55:33;;;;;;;15.47;14.10;;;20.80;99.90;;;;;;4958442;29;20502;-60
2021/08/30 12:58:01;;;;;;;13.80;12.40;;;20.60;99.90;;;;;;4951055;29;20542;-59
2021/08/30 13:00:29;;;;;;;15.50;12.40;;;20.40;99.90;;;;;;4946292;29;20454;-57
2021/08/30 13:02:56;;;;;;;13.03;11.40;;;19.90;99.90;;;;;;4959102;29;20479;-58
2021/08/30 13:05:25;;;;;;;13.17;11.93;;;19.90;99.90;;;;;;4949338;29;20503;-58
2021/08/30 13:07:53;;;;;;;12.10;11.00;;;20.00;99.90;;;;;;4940199;29;20820;-55
2021/08/30 13:10:21;;;;;;;11.37;10.37;;;19.80;99.90;;;;;;4953927;29;20547;-56
2021/08/30 13:12:49;;;;;;;12.00;10.90;;;19.90;99.90;;;;;;4953126;28;20601;-59
2021/08/30 13:15:19;;;;;;;13.30;12.13;;;20.20;99.90;;;;;;4962073;29;20799;-60
2021/08/30 13:52:14;;;;;;;12.03;10.93;;;19.80;99.90;;;;;;5335728;23;20452;-61
2021/08/30 13:54:41;;;;;;;13.20;11.00;;;19.90;99.90;;;;;;5014115;28;20462;-61
2021/08/30 13:57:08;;;;;;;10.50;9.53;;;19.80;99.90;;;;;;5018847;28;20472;-61
2021/08/30 13:59:35;;;;;;;10.63;9.53;;;19.80;99.90;;;;;;5019665;28;20950;-61
2021/08/30 14:02:02;;;;;;;10.80;9.80;;;19.80;99.90;;;;;;5019548;28;20464;-61
2021/08/30 14:04:29;;;;;;;11.33;10.33;;;20.00;99.90;;;;;;5014674;28;20468;-61
2021/08/30 14:06:56;;;;;;;11.20;10.20;;;20.00;99.90;;;;;;5019319;28;20456;-61
2021/08/30 14:09:27;;;;;;;11.97;10.63;;;20.00;99.90;;;;;;5019306;28;20459;-61
2021/08/30 14:11:56;;;;;;;10.57;9.47;;;19.80;99.90;;;;;;5019704;28;20523;-61
2021/08/30 14:14:23;;;;;;;11.20;9.37;;;19.60;99.90;;;;;;5013150;28;20492;-61
2021/08/30 14:16:53;;;;;;;10.93;9.90;;;19.60;99.90;;;;;;5006747;28;20916;-61
2021/08/30 14:19:20;;;;;;;10.60;9.70;;;19.70;99.90;;;;;;5002232;28;20476;-59
2021/08/30 14:21:51;;;;;;;10.87;9.87;;;19.80;99.90;;;;;;5007555;28;20468;-59
2021/08/30 14:24:18;;;;;;;10.37;9.37;;;19.70;99.90;;;;;;5014834;28;20545;-59
2021/08/30 14:26:51;;;;;;;11.13;10.03;;;19.80;99.90;;;;;;5016213;28;20775;-59
2021/08/30 14:29:19;;;;;;;10.43;9.53;;;19.90;99.90;;;;;;5013937;28;20450;-59
2021/08/30 14:31:47;;;;;;;10.93;9.93;;;19.90;99.90;;;;;;5014000;28;20470;-59
2021/08/30 14:34:14;;;;;;;10.27;9.20;;;19.90;99.90;;;;;;5018966;28;20775;-59
2021/08/30 14:36:41;;;;;;;10.80;9.80;;;19.90;99.90;;;;;;5017637;28;20507;-59
2021/08/30 14:39:09;;;;;;;10.90;9.73;;;20.00;99.90;;;;;;5016034;28;20888;-59
2021/08/30 14:41:36;;;;;;;10.57;9.67;;;20.00;99.90;;;;;;5015920;28;20469;-59
2021/08/30 14:44:05;;;;;;;10.87;9.80;;;20.00;99.90;;;;;;5003683;28;20898;-59
2021/08/30 14:46:35;;;;;;;10.23;9.23;;;20.20;99.90;;;;;;5005792;28;20492;-59
2021/08/30 14:49:02;;;;;;;11.33;10.20;;;20.20;99.90;;;;;;5009588;28;20470;-59
2021/08/30 14:51:29;;;;;;;10.97;10.07;;;19.90;99.90;;;;;;5005502;28;20921;-59
2021/08/30 14:53:59;;;;;;;10.53;9.63;;;19.90;99.90;;;;;;5013091;28;20853;-59
2021/08/30 15:30:12;;;;;;;12.03;9.93;;;21.10;99.90;;;;;;4270916;23;20836;-61
2021/08/30 15:32:39;;;;;;;12.00;10.17;;;20.80;99.90;;;;;;5000192;28;20993;-61